createdAt,value
2022-12-25T00:01:23.274Z,75.16
2022-12-25T00:03:52.312Z,73.09
2022-12-25T00:06:20.689Z,74.02
2022-12-25T00:08:48.718Z,74.61
2022-12-25T00:11:19.795Z,72.99
2022-12-25T00:13:48.783Z,72.58
2022-12-25T00:16:20.306Z,73.03
2022-12-25T00:18:49.103Z,73.53
2022-12-25T00:21:18.046Z,73.73
2022-12-25T00:23:46.072Z,73.55
2022-12-25T00:26:16.262Z,73.15
2022-12-25T00:28:45.519Z,75.19
2022-12-25T00:31:16.035Z,74.68
2022-12-25T00:33:46.695Z,74.21
2022-12-25T00:36:16.155Z,73.80
2022-12-25T00:38:45.241Z,74.48
2022-12-25T00:41:39.058Z,74.03
2022-12-25T00:44:08.890Z,72.98
2022-12-25T00:46:37.408Z,72.83
2022-12-25T00:49:06.037Z,72.54
2022-12-25T00:51:34.408Z,73.17
2022-12-25T00:54:02.414Z,73.53
2022-12-25T00:56:30.308Z,73.99
2022-12-25T00:59:01.688Z,73.92
2022-12-25T01:01:29.891Z,74.18
2022-12-25T01:03:58.741Z,74.24
2022-12-25T01:06:26.921Z,75.03
2022-12-25T01:09:13.229Z,74.91
2022-12-25T01:11:41.570Z,74.27
2022-12-25T01:14:09.765Z,74.82
2022-12-25T01:16:38.670Z,74.18
2022-12-25T01:19:07.304Z,74.63
2022-12-25T01:21:35.533Z,74.35
2022-12-25T01:24:03.622Z,73.71
2022-12-25T01:26:31.971Z,74.15
2022-12-25T01:29:00.044Z,72.53
2022-12-25T01:31:28.030Z,74.06
2022-12-25T01:33:56.377Z,73.33
2022-12-25T01:36:26.453Z,74.30
2022-12-25T01:38:55.159Z,72.05
2022-12-25T01:41:25.629Z,73.45
2022-12-25T01:44:02.760Z,72.81
2022-12-25T01:46:31.604Z,72.47
2022-12-25T01:49:25.055Z,72.03
2022-12-25T01:52:00.802Z,73.30
2022-12-25T01:54:38.313Z,74.86
2022-12-25T01:57:10.113Z,74.02
2022-12-25T01:59:37.990Z,72.79
2022-12-25T02:02:06.417Z,72.31
2022-12-25T02:04:43.586Z,71.79
2022-12-25T02:07:18.019Z,72.44
2022-12-25T02:09:46.881Z,71.99
2022-12-25T02:12:29.193Z,72.44
2022-12-25T02:15:04.924Z,70.90
2022-12-25T02:17:39.152Z,72.06
2022-12-25T02:20:22.647Z,70.95
2022-12-25T02:23:25.325Z,69.96
2022-12-25T02:25:56.597Z,70.69
2022-12-25T02:28:45.833Z,69.95
2022-12-25T02:31:18.962Z,70.28
2022-12-25T02:34:14.678Z,71.68
2022-12-25T02:36:51.709Z,72.36
2022-12-25T02:39:43.919Z,71.18
2022-12-25T02:42:15.708Z,71.85
2022-12-25T02:45:03.670Z,71.61
2022-12-25T02:47:51.550Z,72.70
2022-12-25T02:50:38.910Z,70.00
2022-12-25T02:53:27.325Z,72.67
2022-12-25T02:56:15.485Z,72.50
2022-12-25T02:59:03.801Z,72.96
2022-12-25T03:01:53.373Z,73.32
2022-12-25T03:04:41.069Z,73.53
2022-12-25T03:07:12.849Z,73.72
2022-12-25T03:10:06.712Z,74.74
2022-12-25T03:12:50.120Z,73.32
2022-12-25T03:15:38.735Z,72.10
2022-12-25T03:18:15.772Z,73.59
2022-12-25T03:21:02.475Z,73.55
2022-12-25T03:23:51.961Z,73.42
2022-12-25T03:26:38.729Z,74.79
2022-12-25T03:29:06.627Z,73.59
2022-12-25T03:31:46.157Z,73.06
2022-12-25T03:34:51.147Z,73.34
2022-12-25T03:37:45.982Z,72.36
2022-12-25T03:40:56.411Z,72.42
2022-12-25T03:43:53.984Z,70.70
2022-12-25T03:46:41.717Z,69.69
2022-12-25T03:49:36.896Z,69.55
2022-12-25T03:52:26.157Z,70.13
2022-12-25T03:55:15.682Z,69.94
2022-12-25T03:58:02.089Z,70.58
2022-12-25T04:00:48.757Z,70.82
2022-12-25T04:03:37.341Z,71.31
2022-12-25T04:06:24.289Z,71.01
2022-12-25T04:09:11.415Z,70.91
2022-12-25T04:12:02.567Z,71.53
2022-12-25T04:14:53.096Z,71.19
2022-12-25T04:17:39.805Z,71.51
2022-12-25T04:20:27.254Z,72.10
2022-12-25T04:23:13.925Z,71.68
2022-12-25T04:26:00.671Z,71.43
2022-12-25T04:28:47.411Z,72.55
2022-12-25T04:31:34.160Z,71.87
2022-12-25T04:34:20.981Z,70.26
2022-12-25T04:36:49.216Z,71.83
2022-12-25T04:39:17.242Z,71.85
2022-12-25T04:41:45.314Z,71.04
2022-12-25T04:44:13.699Z,72.42
2022-12-25T04:46:41.712Z,74.06
2022-12-25T04:49:09.729Z,69.23
2022-12-25T04:51:38.399Z,70.55
2022-12-25T04:54:06.308Z,71.11
2022-12-25T04:56:35.668Z,71.36
2022-12-25T04:59:06.967Z,75.55
2022-12-25T05:01:34.950Z,75.63
2022-12-25T05:04:02.989Z,76.70
2022-12-25T05:06:31.351Z,76.54
2022-12-25T05:08:59.287Z,78.32
2022-12-25T05:11:27.785Z,77.28
2022-12-25T05:13:57.600Z,76.94
2022-12-25T05:16:26.606Z,75.53
2022-12-25T05:18:54.625Z,73.37
2022-12-25T05:21:23.344Z,76.01
2022-12-25T05:23:52.027Z,76.06
2022-12-25T05:26:25.583Z,75.68
2022-12-25T05:28:54.378Z,75.88
2022-12-25T05:31:22.527Z,74.00
2022-12-25T05:33:51.695Z,72.91
2022-12-25T05:36:20.244Z,73.14
2022-12-25T05:38:48.094Z,72.21
2022-12-25T05:41:15.977Z,72.84
2022-12-25T05:43:44.376Z,74.72
2022-12-25T05:46:13.874Z,71.78
2022-12-25T05:48:42.247Z,73.84
2022-12-25T05:51:12.005Z,74.86
2022-12-25T05:53:40.953Z,73.98
2022-12-25T05:56:09.719Z,71.85
2022-12-25T05:58:39.335Z,72.12
2022-12-25T06:01:12.118Z,72.36
2022-12-25T06:03:42.822Z,72.89
2022-12-25T06:06:13.294Z,73.16
2022-12-25T06:08:42.096Z,73.51
2022-12-25T06:11:10.121Z,72.83
2022-12-25T06:13:38.277Z,72.72
2022-12-25T06:16:08.329Z,74.36
2022-12-25T06:18:37.846Z,72.97
2022-12-25T06:21:09.711Z,73.20
2022-12-25T06:23:38.408Z,73.43
2022-12-25T06:26:08.657Z,76.29
2022-12-25T06:28:36.732Z,79.13
2022-12-25T06:31:09.549Z,76.26
2022-12-25T06:33:38.457Z,75.88
2022-12-25T06:36:11.892Z,76.90
2022-12-25T06:38:41.035Z,74.52
2022-12-25T06:41:15.366Z,75.15
2022-12-25T06:43:43.855Z,75.62
2022-12-25T06:46:12.700Z,77.76
2022-12-25T06:48:41.925Z,79.62
2022-12-25T06:51:10.213Z,78.87
2022-12-25T06:53:39.920Z,80.40
2022-12-25T06:56:16.577Z,82.22
2022-12-25T06:58:50.052Z,83.08
2022-12-25T07:01:27.799Z,81.89
2022-12-25T07:04:02.841Z,77.22
2022-12-25T07:06:31.162Z,76.92
2022-12-25T07:08:59.725Z,81.63
2022-12-25T07:11:27.728Z,81.89
2022-12-25T07:13:55.777Z,79.03
2022-12-25T07:16:24.301Z,76.72
2022-12-25T07:18:52.441Z,73.54
2022-12-25T07:21:21.458Z,73.06
2022-12-25T07:23:50.697Z,71.88
2022-12-25T07:26:18.665Z,75.19
2022-12-25T07:28:46.705Z,74.47
2022-12-25T07:31:17.029Z,74.81
2022-12-25T07:33:45.488Z,75.59
2022-12-25T07:36:14.597Z,76.47
2022-12-25T07:38:43.145Z,74.81
2022-12-25T07:41:13.423Z,76.23
2022-12-25T07:43:41.695Z,72.02
2022-12-25T07:46:10.590Z,73.31
2022-12-25T07:48:38.819Z,73.61
2022-12-25T07:51:10.225Z,70.82
2022-12-25T07:53:39.228Z,74.10
2022-12-25T07:56:08.540Z,72.97
2022-12-25T07:58:36.519Z,75.30
2022-12-25T08:01:07.745Z,69.18
2022-12-25T08:03:36.577Z,68.78
2022-12-25T08:06:07.275Z,67.41
2022-12-25T08:08:36.912Z,68.49
2022-12-25T08:11:09.807Z,66.69
2022-12-25T08:13:38.654Z,66.58
2022-12-25T08:16:08.852Z,64.88
2022-12-25T08:18:38.651Z,64.48
2022-12-25T08:21:09.808Z,62.65
2022-12-25T08:23:40.014Z,66.25
2022-12-25T08:26:09.569Z,64.20
2022-12-25T08:28:37.491Z,61.37
2022-12-25T08:31:11.156Z,61.83
2022-12-25T08:33:39.696Z,61.62
2022-12-25T08:36:10.051Z,59.30
2022-12-25T08:38:38.564Z,57.68
2022-12-25T08:41:07.120Z,57.71
2022-12-25T08:43:35.812Z,56.53
2022-12-25T08:46:04.160Z,55.74
2022-12-25T08:48:32.489Z,53.54
2022-12-25T08:51:01.443Z,51.76
2022-12-25T08:53:29.458Z,52.71
2022-12-25T08:56:01.037Z,52.88
2022-12-25T08:58:29.515Z,53.80
2022-12-25T09:00:57.734Z,48.62
2022-12-25T09:03:26.126Z,50.47
2022-12-25T09:05:55.159Z,46.65
2022-12-25T09:08:23.196Z,48.72
2022-12-25T09:10:51.157Z,47.26
2022-12-25T09:13:19.569Z,50.86
2022-12-25T09:15:47.661Z,49.48
2022-12-25T09:18:15.729Z,50.17
2022-12-25T09:20:44.109Z,49.64
2022-12-25T09:23:14.309Z,46.33
2022-12-25T09:25:45.071Z,45.84
2022-12-25T09:28:13.484Z,47.39
2022-12-25T09:30:41.639Z,48.62
2022-12-25T09:33:09.938Z,47.54
2022-12-25T09:35:38.210Z,49.76
2022-12-25T09:38:06.239Z,49.54
2022-12-25T09:40:34.365Z,49.39
2022-12-25T09:43:03.398Z,49.72
2022-12-25T09:45:38.266Z,47.89
2022-12-25T09:48:06.761Z,49.15
2022-12-25T09:50:51.291Z,48.45
2022-12-25T09:53:22.695Z,44.48
2022-12-25T09:56:04.761Z,42.70
2022-12-25T09:58:34.278Z,39.96
2022-12-25T10:01:30.096Z,37.88
2022-12-25T10:04:20.468Z,38.30
2022-12-25T10:06:48.753Z,38.58
2022-12-25T10:09:32.481Z,35.40
2022-12-25T10:12:31.954Z,34.21
2022-12-25T10:15:21.539Z,32.53
2022-12-25T10:18:22.337Z,31.64
2022-12-25T10:20:57.197Z,31.37
2022-12-25T10:23:38.584Z,29.36
2022-12-25T10:26:18.962Z,29.28
2022-12-25T10:28:51.713Z,27.75
2022-12-25T10:31:25.586Z,28.68
2022-12-25T10:33:54.583Z,28.34
2022-12-25T10:36:28.669Z,28.31
2022-12-25T10:38:57.452Z,28.33
2022-12-25T10:41:50.703Z,28.80
2022-12-25T10:44:20.915Z,28.01
2022-12-25T10:46:55.320Z,28.42
2022-12-25T10:49:25.864Z,30.43
2022-12-25T10:51:55.125Z,28.50
2022-12-25T10:54:29.569Z,28.41
2022-12-25T10:57:00.903Z,29.90
2022-12-25T10:59:31.450Z,29.95
2022-12-25T11:02:10.606Z,28.59
2022-12-25T11:04:38.755Z,26.79
2022-12-25T11:07:24.696Z,25.55
2022-12-25T11:10:16.722Z,28.28
2022-12-25T11:12:46.028Z,28.63
2022-12-25T11:15:43.092Z,28.01
2022-12-25T11:18:27.727Z,29.09
2022-12-25T11:20:58.874Z,27.78
2022-12-25T11:23:30.004Z,29.67
2022-12-25T11:26:08.491Z,28.63
2022-12-25T11:28:39.527Z,29.09
2022-12-25T11:31:10.657Z,30.99
2022-12-25T11:34:10.912Z,30.08
2022-12-25T11:36:49.878Z,32.27
2022-12-25T11:39:34.900Z,31.67
2022-12-25T11:42:39.829Z,32.31
2022-12-25T11:45:13.873Z,32.43
2022-12-25T11:47:57.690Z,32.17
2022-12-25T11:50:44.436Z,31.60
2022-12-25T11:53:21.094Z,33.75
2022-12-25T11:56:16.864Z,30.62
2022-12-25T11:58:48.287Z,29.52
2022-12-25T12:01:19.712Z,32.64
2022-12-25T12:03:48.308Z,30.68
2022-12-25T12:06:25.149Z,30.93
2022-12-25T12:09:02.727Z,30.59
2022-12-25T12:11:46.494Z,31.23
2022-12-25T12:14:27.985Z,31.42
2022-12-25T12:16:56.027Z,34.13
2022-12-25T12:19:27.427Z,32.06
2022-12-25T12:22:01.172Z,34.99
2022-12-25T12:24:41.067Z,35.32
2022-12-25T12:27:37.634Z,34.60
2022-12-25T12:30:06.734Z,35.04
2022-12-25T12:32:35.224Z,35.12
2022-12-25T12:35:17.866Z,38.08
2022-12-25T12:38:16.006Z,39.65
2022-12-25T12:41:04.808Z,38.87
2022-12-25T12:43:45.287Z,41.69
2022-12-25T12:46:31.257Z,43.07
2022-12-25T12:49:09.138Z,45.03
2022-12-25T12:51:38.230Z,46.33
2022-12-25T12:54:23.884Z,48.90
2022-12-25T12:57:03.000Z,51.05
2022-12-25T12:59:44.731Z,52.57
2022-12-25T13:02:34.694Z,53.72
2022-12-25T13:05:34.032Z,55.53
2022-12-25T13:08:33.583Z,57.44
2022-12-25T13:11:19.967Z,59.35
2022-12-25T13:13:49.062Z,57.91
2022-12-25T13:16:23.792Z,57.89
2022-12-25T13:18:53.136Z,56.48
2022-12-25T13:21:25.782Z,57.39
2022-12-25T13:24:21.187Z,56.39
2022-12-25T13:26:49.622Z,57.25
2022-12-25T13:29:38.137Z,56.06
2022-12-25T13:32:07.603Z,56.46
2022-12-25T13:34:41.880Z,56.94
2022-12-25T13:37:16.000Z,58.13
2022-12-25T13:39:52.001Z,57.69
2022-12-25T13:42:21.124Z,56.96
2022-12-25T13:45:06.221Z,57.97
2022-12-25T13:47:37.721Z,58.81
2022-12-25T13:50:16.440Z,59.11
2022-12-25T13:52:44.765Z,59.12
2022-12-25T13:55:33.203Z,57.87
2022-12-25T13:58:03.613Z,58.25
2022-12-25T14:00:31.510Z,57.54
2022-12-25T14:03:00.217Z,59.14
2022-12-25T14:05:37.949Z,58.63
2022-12-25T14:08:16.767Z,60.04
2022-12-25T14:10:47.261Z,59.38
2022-12-25T14:13:16.344Z,60.57
2022-12-25T14:15:45.506Z,60.78
2022-12-25T14:18:15.919Z,60.45
2022-12-25T14:21:06.242Z,62.51
2022-12-25T14:24:00.366Z,63.27
2022-12-25T14:26:33.246Z,62.36
2022-12-25T14:29:16.571Z,63.63
2022-12-25T14:31:46.731Z,65.30
2022-12-25T14:34:20.000Z,65.61
2022-12-25T14:36:48.783Z,65.79
2022-12-25T14:39:45.335Z,65.62
2022-12-25T14:42:20.845Z,63.47
2022-12-25T14:45:21.351Z,66.77
2022-12-25T14:47:55.213Z,65.82
2022-12-25T14:50:41.083Z,64.00
2022-12-25T14:53:21.529Z,65.61
2022-12-25T14:55:51.593Z,64.75
2022-12-25T14:58:28.065Z,70.77
2022-12-25T15:01:06.935Z,71.33
2022-12-25T15:03:39.003Z,72.88
2022-12-25T15:06:25.254Z,70.92
2022-12-25T15:08:58.939Z,71.25
2022-12-25T15:11:27.218Z,71.60
2022-12-25T15:13:55.839Z,71.09
2022-12-25T15:16:29.411Z,68.45
2022-12-25T15:19:00.681Z,67.83
2022-12-25T15:21:34.047Z,67.82
2022-12-25T15:24:03.115Z,70.71
2022-12-25T15:26:32.220Z,73.71
2022-12-25T15:29:00.361Z,75.82
2022-12-25T15:31:31.023Z,77.80
2022-12-25T15:34:01.337Z,77.52
2022-12-25T15:36:30.306Z,76.97
2022-12-25T15:38:59.932Z,76.72
2022-12-25T15:41:51.571Z,79.05
2022-12-25T15:44:20.213Z,78.02
2022-12-25T15:46:48.444Z,78.38
2022-12-25T15:49:17.285Z,75.81
2022-12-25T15:51:45.819Z,75.86
2022-12-25T15:54:14.327Z,75.74
2022-12-25T15:56:47.903Z,74.42
2022-12-25T15:59:17.968Z,74.88
2022-12-25T16:01:51.642Z,74.65
2022-12-25T16:04:20.555Z,75.48
2022-12-25T16:06:52.217Z,75.40
2022-12-25T16:09:21.619Z,75.17
2022-12-25T16:11:50.094Z,73.57
2022-12-25T16:14:19.748Z,72.22
2022-12-25T16:16:48.205Z,72.86
2022-12-25T16:19:16.270Z,71.90
2022-12-25T16:21:46.092Z,71.22
2022-12-25T16:24:14.472Z,70.91
2022-12-25T16:26:42.931Z,70.13
2022-12-25T16:29:11.479Z,70.39
2022-12-25T16:31:40.484Z,69.72
2022-12-25T16:34:09.142Z,70.44
2022-12-25T16:36:38.279Z,70.61
2022-12-25T16:39:06.864Z,69.99
2022-12-25T16:41:35.001Z,69.08
2022-12-25T16:44:09.360Z,70.06
2022-12-25T16:46:38.822Z,70.36
2022-12-25T16:49:07.052Z,68.81
2022-12-25T16:51:35.201Z,68.62
2022-12-25T16:54:06.712Z,69.21
2022-12-25T16:56:36.788Z,68.83
2022-12-25T16:59:05.188Z,69.85
2022-12-25T17:01:33.251Z,71.01
2022-12-25T17:04:04.297Z,70.60
2022-12-25T17:06:32.780Z,70.03
2022-12-25T17:09:02.545Z,70.25
2022-12-25T17:11:31.807Z,71.73
2022-12-25T17:14:02.827Z,71.73
2022-12-25T17:16:36.395Z,71.04
2022-12-25T17:19:13.242Z,70.53
2022-12-25T17:21:41.135Z,70.60
2022-12-25T17:24:09.941Z,70.41
2022-12-25T17:26:44.147Z,72.25
2022-12-25T17:29:15.901Z,70.30
2022-12-25T17:31:46.833Z,72.42
2022-12-25T17:34:15.216Z,72.69
2022-12-25T17:36:43.350Z,74.40
2022-12-25T17:39:12.015Z,72.44
2022-12-25T17:41:43.491Z,72.78
2022-12-25T17:44:11.642Z,71.11
2022-12-25T17:46:39.714Z,71.63
2022-12-25T17:49:12.977Z,72.17
2022-12-25T17:51:41.009Z,73.65
2022-12-25T17:54:09.544Z,74.27
2022-12-25T17:56:37.854Z,73.37
2022-12-25T17:59:12.260Z,72.56
2022-12-25T18:01:40.862Z,75.51
2022-12-25T18:04:10.318Z,76.13
2022-12-25T18:06:38.472Z,75.10
2022-12-25T18:09:07.232Z,74.82
2022-12-25T18:11:39.486Z,74.53
2022-12-25T18:14:09.623Z,75.62
2022-12-25T18:16:40.290Z,75.88
2022-12-25T18:19:09.618Z,75.51
2022-12-25T18:21:38.272Z,74.92
2022-12-25T18:24:09.582Z,75.10
2022-12-25T18:26:38.056Z,74.98
2022-12-25T18:29:07.200Z,75.08
2022-12-25T18:31:35.357Z,77.26
2022-12-25T18:34:04.229Z,75.42
2022-12-25T18:36:32.594Z,73.97
2022-12-25T18:39:00.584Z,75.06
2022-12-25T18:41:29.210Z,75.22
2022-12-25T18:43:57.641Z,74.72
2022-12-25T18:46:27.081Z,74.55
2022-12-25T18:48:56.982Z,73.64
2022-12-25T18:51:28.708Z,74.71
2022-12-25T18:54:01.867Z,74.67
2022-12-25T18:56:29.930Z,72.45
2022-12-25T18:59:00.874Z,73.28
2022-12-25T19:01:29.497Z,75.02
2022-12-25T19:04:04.530Z,73.72
2022-12-25T19:06:34.157Z,73.62
2022-12-25T19:09:09.363Z,73.44
2022-12-25T19:11:45.858Z,72.49
2022-12-25T19:14:15.422Z,73.57
2022-12-25T19:16:44.144Z,73.27
2022-12-25T19:19:12.408Z,73.98
2022-12-25T19:21:40.998Z,74.25
2022-12-25T19:24:09.475Z,73.84
2022-12-25T19:26:37.945Z,73.01
2022-12-25T19:29:06.029Z,73.47
2022-12-25T19:31:34.885Z,73.30
2022-12-25T19:34:05.465Z,72.74
2022-12-25T19:36:33.514Z,74.07
2022-12-25T19:39:01.926Z,73.54
2022-12-25T19:41:29.933Z,72.96
2022-12-25T19:43:57.999Z,74.88
2022-12-25T19:46:28.990Z,73.96
2022-12-25T19:48:57.283Z,73.75
2022-12-25T19:51:28.373Z,74.64
2022-12-25T19:53:57.020Z,73.32
2022-12-25T19:56:27.085Z,73.74
2022-12-25T19:58:55.473Z,73.20
2022-12-25T20:01:25.723Z,74.45
2022-12-25T20:03:54.798Z,75.41
2022-12-25T20:06:26.397Z,74.79
2022-12-25T20:09:00.260Z,74.01
2022-12-25T20:11:30.732Z,74.76
2022-12-25T20:13:59.328Z,74.56
2022-12-25T20:16:27.659Z,73.96
2022-12-25T20:18:56.826Z,74.56
2022-12-25T20:21:27.497Z,74.55
2022-12-25T20:23:56.398Z,74.82
2022-12-25T20:26:28.727Z,74.51
2022-12-25T20:28:57.536Z,73.71
2022-12-25T20:31:28.486Z,72.25
2022-12-25T20:33:59.001Z,73.40
2022-12-25T20:36:34.444Z,73.49
2022-12-25T20:39:05.061Z,74.25
2022-12-25T20:41:33.408Z,76.01
2022-12-25T20:44:02.105Z,75.19
2022-12-25T20:46:30.263Z,74.84
2022-12-25T20:48:59.047Z,73.88
2022-12-25T20:51:27.290Z,74.36
2022-12-25T20:53:55.974Z,74.66
2022-12-25T20:56:26.019Z,73.90
2022-12-25T20:58:59.120Z,74.59
2022-12-25T21:01:29.539Z,74.11
2022-12-25T21:03:58.195Z,73.41
2022-12-25T21:06:26.372Z,74.35
2022-12-25T21:08:55.000Z,73.64
2022-12-25T21:13:50.565Z,74.50
2022-12-25T21:16:21.658Z,74.73
2022-12-25T21:18:51.186Z,74.94
2022-12-25T21:21:20.649Z,74.95
2022-12-25T21:23:48.673Z,73.54
2022-12-25T21:26:22.272Z,73.62
2022-12-25T21:28:52.892Z,73.23
2022-12-25T21:31:21.574Z,73.48
2022-12-25T21:33:54.647Z,73.56
2022-12-25T21:36:24.504Z,74.27
2022-12-25T21:38:57.770Z,74.61
2022-12-25T21:41:27.442Z,74.13
2022-12-25T21:43:56.257Z,73.40
2022-12-25T21:46:24.937Z,74.24
2022-12-25T21:48:54.368Z,74.52
2022-12-25T21:51:47.989Z,74.06
2022-12-25T21:54:17.288Z,75.04
2022-12-25T21:56:47.357Z,74.12
2022-12-25T21:59:18.082Z,75.59
2022-12-25T22:01:46.645Z,73.36
2022-12-25T22:04:16.649Z,73.47
2022-12-25T22:07:04.854Z,71.88
2022-12-25T22:09:33.393Z,73.67
2022-12-25T22:12:20.398Z,74.12
2022-12-25T22:14:56.329Z,73.87
